createdAt,value
2022-08-30T00:01:07.847Z,98128.15
2022-08-30T00:02:22.099Z,98129.35
2022-08-30T00:03:36.046Z,98130.03
2022-08-30T00:04:47.110Z,98129.17
2022-08-30T00:05:56.302Z,98129.11
2022-08-30T00:07:05.330Z,98132.61
2022-08-30T00:08:13.366Z,98130.25
2022-08-30T00:09:20.802Z,98131.51
2022-08-30T00:10:28.243Z,98131.38
2022-08-30T00:11:36.652Z,98130.56
2022-08-30T00:12:45.442Z,98130.90
2022-08-30T00:13:55.376Z,98133.46
2022-08-30T00:15:03.702Z,98134.23
2022-08-30T00:16:12.118Z,98136.52
2022-08-30T00:17:20.786Z,98141.05
2022-08-30T00:18:28.654Z,98137.48
2022-08-30T00:19:36.662Z,98139.75
2022-08-30T00:20:43.722Z,98137.23
2022-08-30T00:21:50.902Z,98134.93
2022-08-30T00:22:58.030Z,98131.71
2022-08-30T00:24:06.173Z,98137.81
2022-08-30T00:25:13.763Z,98137.94
2022-08-30T00:26:20.973Z,98138.16
2022-08-30T00:27:28.508Z,98138.47
2022-08-30T00:28:36.291Z,98138.48
2022-08-30T00:29:43.449Z,98137.92
2022-08-30T00:30:50.719Z,98142.48
2022-08-30T00:31:58.079Z,98143.67
2022-08-30T00:33:05.042Z,98140.19
2022-08-30T00:34:12.534Z,98141.63
2022-08-30T00:35:21.978Z,98145.24
2022-08-30T00:36:30.147Z,98143.74
2022-08-30T00:37:39.559Z,98148.01
2022-08-30T00:38:48.368Z,98149.54
2022-08-30T00:39:57.474Z,98146.80
2022-08-30T00:41:05.337Z,98146.73
2022-08-30T00:42:14.106Z,98150.36
2022-08-30T00:43:27.833Z,98146.95
2022-08-30T00:44:35.600Z,98147.66
2022-08-30T00:45:43.344Z,98152.20
2022-08-30T00:46:51.851Z,98150.19
2022-08-30T00:47:59.953Z,98148.25
2022-08-30T00:49:09.451Z,98146.68
2022-08-30T00:50:17.655Z,98148.65
2022-08-30T00:51:25.723Z,98150.76
2022-08-30T00:52:33.435Z,98149.79
2022-08-30T00:53:43.283Z,98155.11
2022-08-30T00:54:50.602Z,98154.89
2022-08-30T00:55:57.874Z,98151.48
2022-08-30T00:57:05.275Z,98154.92
2022-08-30T00:58:14.931Z,98152.13
2022-08-30T00:59:23.312Z,98150.12
2022-08-30T01:00:30.338Z,98151.73
2022-08-30T01:01:38.725Z,98154.95
2022-08-30T01:02:45.810Z,98155.96
2022-08-30T01:03:55.989Z,98156.34
2022-08-30T01:05:04.267Z,98156.25
2022-08-30T01:06:11.378Z,98155.19
2022-08-30T01:07:18.508Z,98151.10
2022-08-30T01:08:25.727Z,98156.33
2022-08-30T01:09:33.027Z,98152.88
2022-08-30T01:10:40.038Z,98155.59
2022-08-30T01:11:47.179Z,98157.48
2022-08-30T01:12:54.335Z,98155.58
2022-08-30T01:14:01.517Z,98156.90
2022-08-30T01:15:09.147Z,98160.61
2022-08-30T01:16:16.844Z,98159.58
2022-08-30T01:17:23.940Z,98162.08
2022-08-30T01:18:31.267Z,98159.94
2022-08-30T01:19:43.138Z,98156.27
2022-08-30T01:21:08.679Z,98161.77
2022-08-30T01:22:44.585Z,98156.46
2022-08-30T01:23:55.459Z,98158.77
2022-08-30T01:25:02.740Z,98162.73
2022-08-30T01:26:10.062Z,98160.59
2022-08-30T01:27:20.267Z,98159.12
2022-08-30T01:28:27.979Z,98158.20
2022-08-30T01:29:35.418Z,98161.80
2022-08-30T01:30:44.327Z,98162.70
2022-08-30T01:31:51.752Z,98162.27
2022-08-30T01:33:05.212Z,98157.59
2022-08-30T01:34:12.229Z,98154.32
2022-08-30T01:35:20.122Z,98152.77
2022-08-30T01:36:27.395Z,98152.69
2022-08-30T01:37:34.830Z,98147.13
2022-08-30T01:39:00.063Z,98148.30
2022-08-30T01:40:08.936Z,98149.59
2022-08-30T01:41:21.252Z,98144.88
2022-08-30T01:42:30.210Z,98148.83
2022-08-30T01:43:38.360Z,98152.25
2022-08-30T01:44:46.081Z,98155.02
2022-08-30T01:45:53.148Z,98152.67
2022-08-30T01:47:00.563Z,98156.48
2022-08-30T01:48:07.605Z,98154.69
2022-08-30T01:49:16.490Z,98158.24
2022-08-30T01:50:23.745Z,98158.65
2022-08-30T01:51:32.496Z,98156.53
2022-08-30T01:52:40.805Z,98165.30
2022-08-30T01:53:49.282Z,98170.59
2022-08-30T01:54:56.797Z,98168.52
2022-08-30T01:56:04.778Z,98167.20
2022-08-30T01:57:13.405Z,98165.40
2022-08-30T01:58:20.178Z,98165.63
2022-08-30T01:59:27.446Z,98170.60
2022-08-30T02:00:34.645Z,98167.06
2022-08-30T02:01:44.585Z,98166.91
2022-08-30T02:02:53.704Z,98170.11
2022-08-30T02:04:01.830Z,98172.33
2022-08-30T02:05:09.948Z,98175.36
2022-08-30T02:06:21.120Z,98176.09
2022-08-30T02:07:31.451Z,98178.67
2022-08-30T02:08:42.128Z,98177.82
2022-08-30T02:09:51.917Z,98183.52
2022-08-30T02:11:01.441Z,98183.65
2022-08-30T02:12:09.814Z,98184.59
2022-08-30T02:13:17.669Z,98189.69
2022-08-30T02:14:24.713Z,98191.19
2022-08-30T02:15:33.013Z,98197.66
2022-08-30T02:16:49.881Z,98199.46
2022-08-30T02:17:57.442Z,98199.59
2022-08-30T02:19:08.804Z,98201.96
2022-08-30T02:20:15.854Z,98202.75
2022-08-30T02:21:22.961Z,98204.73
2022-08-30T02:22:29.981Z,98203.10
2022-08-30T02:23:37.865Z,98203.32
2022-08-30T02:24:44.734Z,98207.77
2022-08-30T02:25:52.093Z,98211.91
2022-08-30T02:26:59.504Z,98217.38
2022-08-30T02:28:06.964Z,98217.00
2022-08-30T02:29:16.084Z,98219.05
2022-08-30T02:30:23.258Z,98220.20
2022-08-30T02:31:30.883Z,98225.92
2022-08-30T02:32:37.804Z,98226.29
2022-08-30T02:33:45.136Z,98224.23
2022-08-30T02:34:52.795Z,98225.34
2022-08-30T02:36:00.588Z,98228.84
2022-08-30T02:37:08.027Z,98232.88
2022-08-30T02:38:15.578Z,98236.85
2022-08-30T02:39:27.996Z,98239.36
2022-08-30T02:40:36.766Z,98239.38
2022-08-30T02:41:48.153Z,98237.05
2022-08-30T02:42:57.580Z,98237.73
2022-08-30T02:44:07.050Z,98241.48
2022-08-30T02:45:14.810Z,98242.17
2022-08-30T02:46:22.423Z,98240.16
2022-08-30T02:47:29.932Z,98243.98
2022-08-30T02:48:37.772Z,98244.39
2022-08-30T02:49:45.063Z,98244.73
2022-08-30T02:50:53.351Z,98246.19
2022-08-30T02:52:00.735Z,98253.38
2022-08-30T02:53:08.217Z,98253.70
2022-08-30T02:54:21.457Z,98256.40
2022-08-30T02:55:29.309Z,98261.10
2022-08-30T02:56:38.101Z,98263.32
2022-08-30T02:57:46.646Z,98262.56
2022-08-30T02:58:55.725Z,98267.91
2022-08-30T03:00:03.907Z,98266.00
2022-08-30T03:01:13.734Z,98269.20
2022-08-30T03:02:21.295Z,98272.85
2022-08-30T03:03:29.052Z,98274.45
2022-08-30T03:04:37.708Z,98274.01
2022-08-30T03:05:46.442Z,98276.71
2022-08-30T03:06:55.728Z,98279.48
2022-08-30T03:08:03.900Z,98283.61
2022-08-30T03:09:11.215Z,98290.05
2022-08-30T03:10:18.579Z,98291.06
2022-08-30T03:11:25.885Z,98291.94
2022-08-30T03:12:37.119Z,98293.80
2022-08-30T03:13:45.917Z,98297.17
2022-08-30T03:14:54.836Z,98303.51
2022-08-30T03:16:02.724Z,98308.17
2022-08-30T03:17:15.798Z,98307.61
2022-08-30T03:18:23.768Z,98306.84
2022-08-30T03:19:37.373Z,98310.52
2022-08-30T03:20:54.194Z,98307.16
2022-08-30T03:22:04.509Z,98311.51
2022-08-30T03:23:12.459Z,98312.45
2022-08-30T03:24:29.182Z,98319.21
2022-08-30T03:25:38.391Z,98324.04
2022-08-30T03:26:47.523Z,98326.13
2022-08-30T03:27:55.977Z,98328.92
2022-08-30T03:29:04.679Z,98330.23
2022-08-30T03:30:13.756Z,98329.31
2022-08-30T03:31:21.195Z,98330.95
2022-08-30T03:32:29.790Z,98333.36
2022-08-30T03:33:38.400Z,98334.40
2022-08-30T03:34:47.016Z,98336.59
2022-08-30T03:35:56.587Z,98339.55
2022-08-30T03:37:04.665Z,98340.54
2022-08-30T03:38:12.723Z,98344.75
2022-08-30T03:39:20.018Z,98346.95
2022-08-30T03:40:27.496Z,98346.94
2022-08-30T03:41:35.349Z,98347.89
2022-08-30T03:42:43.755Z,98352.27
2022-08-30T03:43:52.625Z,98354.63
2022-08-30T03:45:09.765Z,98355.67
2022-08-30T03:46:17.363Z,98358.29
2022-08-30T03:47:30.762Z,98364.21
2022-08-30T03:48:37.889Z,98366.07
2022-08-30T03:49:45.162Z,98368.25
2022-08-30T03:50:52.371Z,98371.65
2022-08-30T03:51:59.533Z,98375.15
2022-08-30T03:53:06.611Z,98377.11
2022-08-30T03:54:13.803Z,98377.80
2022-08-30T03:55:20.844Z,98381.47
2022-08-30T03:56:28.153Z,98382.84
2022-08-30T03:57:36.570Z,98385.29
2022-08-30T03:58:43.951Z,98387.92
2022-08-30T03:59:51.193Z,98386.15
2022-08-30T04:00:58.688Z,98387.23
2022-08-30T04:02:06.575Z,98387.38
2022-08-30T04:03:13.623Z,98389.95
2022-08-30T04:04:21.183Z,98392.45
2022-08-30T04:05:28.710Z,98391.89
2022-08-30T04:06:36.693Z,98395.17
2022-08-30T04:07:44.051Z,98400.71
2022-08-30T04:08:52.789Z,98402.06
2022-08-30T04:10:00.943Z,98405.23
2022-08-30T04:11:08.675Z,98407.20
2022-08-30T04:12:18.388Z,98406.18
2022-08-30T04:13:31.302Z,98404.38
2022-08-30T04:14:39.781Z,98406.34
2022-08-30T04:15:48.190Z,98411.23
2022-08-30T04:16:57.064Z,98412.98
2022-08-30T04:18:04.995Z,98412.86
2022-08-30T04:19:12.753Z,98414.28
2022-08-30T04:20:19.964Z,98414.54
2022-08-30T04:21:28.133Z,98411.45
2022-08-30T04:22:37.003Z,98412.69
2022-08-30T04:23:46.156Z,98416.48
2022-08-30T04:24:54.502Z,98414.80
2022-08-30T04:26:03.003Z,98419.18
2022-08-30T04:27:11.156Z,98418.19
2022-08-30T04:28:18.484Z,98421.58
2022-08-30T04:29:26.853Z,98422.61
2022-08-30T04:30:35.201Z,98423.52
2022-08-30T04:31:43.795Z,98428.51
2022-08-30T04:32:55.529Z,98430.29
2022-08-30T04:34:06.261Z,98430.16
2022-08-30T04:35:14.322Z,98429.43
2022-08-30T04:36:21.635Z,98428.08
2022-08-30T04:37:29.019Z,98430.41
2022-08-30T04:38:36.874Z,98432.05
2022-08-30T04:39:44.661Z,98432.13
2022-08-30T04:40:53.948Z,98434.20
2022-08-30T04:42:01.291Z,98440.77
2022-08-30T04:43:08.142Z,98438.33
2022-08-30T04:44:19.500Z,98438.46
2022-08-30T04:45:28.039Z,98437.77
2022-08-30T04:46:37.697Z,98439.52
2022-08-30T04:47:54.096Z,98438.52
2022-08-30T04:49:06.176Z,98440.33
2022-08-30T04:50:15.867Z,98439.33
2022-08-30T04:51:23.690Z,98443.26
2022-08-30T04:52:31.872Z,98437.67
2022-08-30T04:53:40.729Z,98438.82
2022-08-30T04:54:49.380Z,98437.77
2022-08-30T04:55:58.909Z,98436.77
2022-08-30T04:57:08.419Z,98436.21
2022-08-30T04:58:16.930Z,98435.66
2022-08-30T04:59:25.385Z,98437.29
2022-08-30T05:00:34.172Z,98436.21
2022-08-30T05:01:45.551Z,98435.52
2022-08-30T05:02:54.422Z,98437.05
2022-08-30T05:04:02.010Z,98439.00
2022-08-30T05:05:29.355Z,98439.41
2022-08-30T05:06:41.376Z,98437.77
2022-08-30T05:07:49.934Z,98436.98
2022-08-30T05:08:58.614Z,98437.40
2022-08-30T05:10:10.964Z,98442.63
2022-08-30T05:11:20.263Z,98443.66
2022-08-30T05:12:27.853Z,98446.48
2022-08-30T05:13:36.948Z,98446.00
2022-08-30T05:14:44.798Z,98444.76
2022-08-30T05:15:54.790Z,98446.60
2022-08-30T05:17:03.637Z,98444.75
2022-08-30T05:18:14.129Z,98443.57
2022-08-30T05:19:21.985Z,98445.86
2022-08-30T05:20:30.162Z,98449.11
2022-08-30T05:21:38.801Z,98447.77
2022-08-30T05:22:54.115Z,98448.79
2022-08-30T05:24:05.941Z,98448.11
2022-08-30T05:25:14.662Z,98445.73
2022-08-30T05:26:26.123Z,98445.77
2022-08-30T05:27:37.719Z,98449.60
2022-08-30T05:28:48.985Z,98446.20
2022-08-30T05:29:58.319Z,98446.69
2022-08-30T05:31:10.627Z,98446.75
2022-08-30T05:32:21.400Z,98442.25
2022-08-30T05:33:31.253Z,98440.27
2022-08-30T05:34:46.151Z,98442.05
2022-08-30T05:35:53.801Z,98444.48
2022-08-30T05:37:01.242Z,98442.66
2022-08-30T05:38:09.068Z,98445.27
2022-08-30T05:39:17.492Z,98444.66
2022-08-30T05:40:29.232Z,98443.13
2022-08-30T05:41:36.952Z,98444.43
2022-08-30T05:42:44.391Z,98443.71
2022-08-30T05:43:53.562Z,98441.92
2022-08-30T05:45:00.968Z,98446.93
2022-08-30T05:46:09.693Z,98446.80
2022-08-30T05:47:16.817Z,98447.98
2022-08-30T05:48:23.811Z,98442.92
2022-08-30T05:49:30.928Z,98446.06
2022-08-30T05:50:39.877Z,98444.08
2022-08-30T05:51:47.367Z,98448.81
2022-08-30T05:52:55.668Z,98451.01
2022-08-30T05:54:04.170Z,98449.07
2022-08-30T05:55:12.696Z,98449.59
2022-08-30T05:56:24.785Z,98451.59
2022-08-30T05:57:36.981Z,98452.05
2022-08-30T05:58:44.997Z,98449.02
2022-08-30T05:59:53.476Z,98451.30
2022-08-30T06:01:01.822Z,98452.75
2022-08-30T06:02:10.091Z,98449.48
2022-08-30T06:03:20.818Z,98447.62
2022-08-30T06:04:28.566Z,98450.38
2022-08-30T06:05:37.888Z,98448.70
2022-08-30T06:06:46.949Z,98448.83
2022-08-30T06:07:56.029Z,98445.38
2022-08-30T06:09:05.388Z,98444.95
2022-08-30T06:10:15.209Z,98440.70
2022-08-30T06:11:25.333Z,98439.73
2022-08-30T06:12:34.438Z,98438.11
2022-08-30T06:13:43.953Z,98441.16
2022-08-30T06:14:53.733Z,98443.86
2022-08-30T06:16:02.489Z,98445.63
2022-08-30T06:17:09.903Z,98441.33
2022-08-30T06:18:17.957Z,98442.35
2022-08-30T06:19:29.509Z,98441.21
2022-08-30T06:20:43.530Z,98443.54
2022-08-30T06:21:52.189Z,98441.08
2022-08-30T06:23:03.217Z,98442.73
2022-08-30T06:24:12.639Z,98446.38
2022-08-30T06:25:20.317Z,98446.83
2022-08-30T06:26:28.698Z,98449.11
2022-08-30T06:27:35.988Z,98448.05
2022-08-30T06:28:43.336Z,98446.30
2022-08-30T06:29:53.556Z,98446.53
2022-08-30T06:31:00.801Z,98452.72
2022-08-30T06:32:08.230Z,98452.43
2022-08-30T06:33:15.345Z,98454.67
2022-08-30T06:34:23.188Z,98454.77
2022-08-30T06:35:32.727Z,98452.52
2022-08-30T06:36:43.008Z,98454.08
2022-08-30T06:37:50.090Z,98453.02
2022-08-30T06:38:58.696Z,98450.77
2022-08-30T06:40:06.336Z,98449.38
2022-08-30T06:41:17.638Z,98450.64
2022-08-30T06:42:25.169Z,98450.58
2022-08-30T06:43:33.136Z,98453.34
2022-08-30T06:44:41.018Z,98455.56
2022-08-30T06:45:53.607Z,98455.01
2022-08-30T06:47:00.882Z,98451.65
2022-08-30T06:48:08.050Z,98454.85
2022-08-30T06:49:15.037Z,98459.11
2022-08-30T06:50:22.715Z,98457.90
2022-08-30T06:51:32.698Z,98459.84
2022-08-30T06:52:45.247Z,98460.20
2022-08-30T06:53:55.039Z,98464.70
2022-08-30T06:55:03.427Z,98463.65
2022-08-30T06:56:16.475Z,98464.06
2022-08-30T06:57:24.223Z,98461.86
2022-08-30T06:58:33.069Z,98460.77
2022-08-30T06:59:41.525Z,98462.02
2022-08-30T07:00:50.317Z,98463.50
2022-08-30T07:01:59.517Z,98467.61
2022-08-30T07:03:07.989Z,98468.41
2022-08-30T07:04:15.225Z,98465.61
2022-08-30T07:05:25.144Z,98471.55
2022-08-30T07:06:32.333Z,98470.55
2022-08-30T07:07:39.865Z,98471.36
2022-08-30T07:08:47.006Z,98467.78
2022-08-30T07:09:55.105Z,98466.59
2022-08-30T07:11:02.267Z,98471.20
2022-08-30T07:12:10.225Z,98472.64
2022-08-30T07:13:17.622Z,98476.30
2022-08-30T07:14:24.815Z,98475.11
2022-08-30T07:15:31.992Z,98473.65
2022-08-30T07:16:51.237Z,98473.25
2022-08-30T07:18:17.717Z,98470.96
2022-08-30T07:19:25.504Z,98474.07
2022-08-30T07:20:39.894Z,98474.60
2022-08-30T07:21:47.853Z,98475.23
2022-08-30T07:22:56.936Z,98476.88
2022-08-30T07:24:04.242Z,98478.98
2022-08-30T07:25:17.667Z,98480.06
2022-08-30T07:26:35.920Z,98480.17
2022-08-30T07:27:43.396Z,98479.55
2022-08-30T07:28:52.329Z,98480.86
2022-08-30T07:30:04.753Z,98482.98
2022-08-30T07:31:14.266Z,98484.08
2022-08-30T07:32:21.574Z,98484.81
2022-08-30T07:33:28.824Z,98484.91
2022-08-30T07:34:36.081Z,98482.42
2022-08-30T07:35:43.345Z,98480.89
2022-08-30T07:36:50.857Z,98482.07
2022-08-30T07:37:58.196Z,98480.98
2022-08-30T07:39:06.040Z,98478.83
2022-08-30T07:40:15.257Z,98480.30
2022-08-30T07:41:27.431Z,98482.45
2022-08-30T07:42:34.774Z,98486.64
2022-08-30T07:43:42.542Z,98486.47
2022-08-30T07:44:51.114Z,98487.56
2022-08-30T07:46:08.790Z,98491.77
2022-08-30T07:47:17.501Z,98493.39
2022-08-30T07:48:24.647Z,98494.73
2022-08-30T07:49:31.575Z,98492.69
2022-08-30T07:50:38.626Z,98497.43
2022-08-30T07:51:45.624Z,98496.77
2022-08-30T07:52:52.706Z,98494.92
2022-08-30T07:53:59.953Z,98493.39
2022-08-30T07:55:07.712Z,98495.30
2022-08-30T07:56:14.873Z,98495.48
2022-08-30T07:57:21.958Z,98495.21
2022-08-30T07:58:28.833Z,98497.83
2022-08-30T07:59:36.558Z,98498.12
2022-08-30T08:00:44.125Z,98500.80
2022-08-30T08:01:51.588Z,98497.04
2022-08-30T08:03:00.509Z,98496.73
2022-08-30T08:04:08.395Z,98501.79
2022-08-30T08:05:17.738Z,98499.23
2022-08-30T08:06:26.424Z,98496.20
2022-08-30T08:07:33.986Z,98497.48
2022-08-30T08:08:41.510Z,98498.89
2022-08-30T08:09:48.965Z,98498.72
2022-08-30T08:10:56.325Z,98498.16
2022-08-30T08:12:03.425Z,98497.98
2022-08-30T08:13:10.625Z,98499.52
2022-08-30T08:14:17.939Z,98501.58
2022-08-30T08:15:25.606Z,98497.36
2022-08-30T08:16:34.089Z,98496.98
2022-08-30T08:17:41.446Z,98497.16
2022-08-30T08:18:48.225Z,98495.94
2022-08-30T08:19:55.785Z,98494.73
2022-08-30T08:21:02.906Z,98495.60
2022-08-30T08:22:20.507Z,98495.89
2022-08-30T08:23:28.713Z,98497.00
2022-08-30T08:24:35.974Z,98497.81
2022-08-30T08:25:43.806Z,98497.03
2022-08-30T08:26:52.655Z,98499.55
2022-08-30T08:28:00.533Z,98496.31
2022-08-30T08:29:09.294Z,98493.52
2022-08-30T08:30:17.605Z,98496.84
2022-08-30T08:31:33.046Z,98496.12
2022-08-30T08:32:42.468Z,98496.41
2022-08-30T08:33:50.985Z,98493.95
2022-08-30T08:34:59.407Z,98494.13
2022-08-30T08:36:09.352Z,98495.41
2022-08-30T08:37:20.793Z,98492.11
2022-08-30T08:38:28.366Z,98490.36
2022-08-30T08:39:37.165Z,98488.98
2022-08-30T08:41:07.718Z,98490.67
2022-08-30T08:42:34.136Z,98486.23
2022-08-30T08:43:42.188Z,98489.48
2022-08-30T08:44:54.649Z,98492.09
2022-08-30T08:46:14.308Z,98491.92
2022-08-30T08:47:32.357Z,98495.10
2022-08-30T08:49:00.090Z,98494.63
2022-08-30T08:50:13.301Z,98488.71
2022-08-30T08:51:45.345Z,98491.24
2022-08-30T08:53:45.224Z,98487.13
2022-08-30T08:55:02.267Z,98484.27
2022-08-30T08:56:17.312Z,98486.62
2022-08-30T08:57:24.867Z,98485.80
2022-08-30T08:58:42.125Z,98483.46
2022-08-30T08:59:50.007Z,98484.27
2022-08-30T09:01:01.111Z,98484.27
2022-08-30T09:02:25.368Z,98482.31
2022-08-30T09:03:32.786Z,98478.80
2022-08-30T09:04:40.734Z,98478.09
2022-08-30T09:05:49.794Z,98480.65
2022-08-30T09:06:59.817Z,98481.27
2022-08-30T09:08:10.612Z,98483.02
2022-08-30T09:09:20.337Z,98483.88
2022-08-30T09:10:47.121Z,98483.18
2022-08-30T09:11:55.275Z,98480.06
2022-08-30T09:13:03.007Z,98477.23
2022-08-30T09:14:16.797Z,98474.69
2022-08-30T09:15:26.391Z,98473.60
2022-08-30T09:16:51.586Z,98473.98
2022-08-30T09:18:03.536Z,98471.77
2022-08-30T09:19:11.124Z,98469.52
2022-08-30T09:20:26.726Z,98473.03
2022-08-30T09:21:33.884Z,98476.76
2022-08-30T09:22:43.807Z,98475.98
2022-08-30T09:24:06.055Z,98475.80
2022-08-30T09:25:16.528Z,98475.08
2022-08-30T09:26:43.667Z,98475.28
2022-08-30T09:27:53.556Z,98474.89
2022-08-30T09:29:02.258Z,98476.86
2022-08-30T09:30:19.895Z,98477.20
2022-08-30T09:31:31.729Z,98477.05
2022-08-30T09:32:43.646Z,98477.52
2022-08-30T09:34:10.470Z,98476.38
2022-08-30T09:35:21.779Z,98477.76
2022-08-30T09:36:29.816Z,98474.02
2022-08-30T09:38:10.432Z,98474.92
2022-08-30T09:39:28.260Z,98473.55
2022-08-30T09:40:51.066Z,98472.26
2022-08-30T09:42:12.831Z,98472.09
2022-08-30T09:43:19.987Z,98472.82
2022-08-30T09:44:32.036Z,98473.63
2022-08-30T09:45:41.299Z,98479.25
2022-08-30T09:46:54.286Z,98478.80
2022-08-30T09:48:03.277Z,98473.17
2022-08-30T09:49:31.553Z,98479.13
2022-08-30T09:50:39.077Z,98480.70
2022-08-30T09:51:54.616Z,98481.64
2022-08-30T09:53:11.305Z,98478.36
2022-08-30T09:54:31.136Z,98477.66
2022-08-30T09:55:58.157Z,98476.63
2022-08-30T09:57:39.699Z,98472.58
2022-08-30T09:59:18.366Z,98475.09
2022-08-30T10:00:32.637Z,98477.41
2022-08-30T10:01:42.132Z,98478.89
2022-08-30T10:03:30.049Z,98479.83
2022-08-30T10:04:59.358Z,98479.10
2022-08-30T10:06:09.045Z,98483.44
2022-08-30T10:07:21.173Z,98482.73
2022-08-30T10:08:54.043Z,98483.20
2022-08-30T10:10:19.575Z,98483.20
2022-08-30T10:12:06.287Z,98482.15
2022-08-30T10:13:33.771Z,98481.79
2022-08-30T10:14:50.905Z,98483.41
2022-08-30T10:16:20.696Z,98484.59
2022-08-30T10:17:50.206Z,98485.65
2022-08-30T10:19:10.336Z,98485.17
2022-08-30T10:20:31.158Z,98485.27
2022-08-30T10:21:44.111Z,98485.60
2022-08-30T10:23:11.793Z,98487.09
2022-08-30T10:24:21.878Z,98487.63
2022-08-30T10:25:32.239Z,98489.68
2022-08-30T10:27:05.297Z,98487.11
2022-08-30T10:28:16.080Z,98491.64
2022-08-30T10:29:46.521Z,98491.61
2022-08-30T10:31:03.831Z,98491.52
2022-08-30T10:32:20.524Z,98494.98
2022-08-30T10:33:31.783Z,98493.02
2022-08-30T10:34:43.742Z,98491.68
2022-08-30T10:35:54.211Z,98490.64
2022-08-30T10:37:06.694Z,98493.60
2022-08-30T10:38:27.391Z,98491.79
2022-08-30T10:39:39.500Z,98487.08
2022-08-30T10:41:08.361Z,98482.09
2022-08-30T10:42:28.291Z,98478.98
2022-08-30T10:43:56.653Z,98478.61
2022-08-30T10:45:14.083Z,98478.21
2022-08-30T10:46:39.847Z,98477.81
2022-08-30T10:48:07.641Z,98475.21
2022-08-30T10:49:27.460Z,98474.70
2022-08-30T10:50:41.285Z,98475.46
2022-08-30T10:52:10.020Z,98476.46
2022-08-30T10:53:23.679Z,98474.38
2022-08-30T10:54:37.077Z,98473.13
2022-08-30T10:56:03.990Z,98473.10
2022-08-30T10:57:11.430Z,98474.58
2022-08-30T10:58:19.121Z,98473.49
2022-08-30T10:59:26.160Z,98474.11
2022-08-30T11:01:08.852Z,98472.32
2022-08-30T11:02:34.520Z,98474.37
2022-08-30T11:04:04.621Z,98476.74
2022-08-30T11:05:48.461Z,98477.68
2022-08-30T11:07:09.277Z,98481.70
2022-08-30T11:08:39.129Z,98481.63
2022-08-30T11:10:08.966Z,98477.23
2022-08-30T11:11:53.851Z,98475.10
2022-08-30T11:13:06.234Z,98480.70
2022-08-30T11:14:15.866Z,98480.69
2022-08-30T11:15:25.540Z,98480.27
2022-08-30T11:16:43.722Z,98478.73
2022-08-30T11:18:11.730Z,98476.38
2022-08-30T11:19:39.740Z,98479.00
2022-08-30T11:20:52.660Z,98481.30
2022-08-30T11:22:18.328Z,98484.45
2022-08-30T11:23:36.242Z,98487.83
2022-08-30T11:25:09.707Z,98491.00
2022-08-30T11:26:20.402Z,98492.38
2022-08-30T11:27:48.329Z,98496.15
2022-08-30T11:29:02.408Z,98494.91
2022-08-30T11:30:28.165Z,98493.89
2022-08-30T11:31:40.730Z,98494.66
2022-08-30T11:33:09.883Z,98491.70
2022-08-30T11:34:17.031Z,98495.26
2022-08-30T11:35:48.463Z,98494.86
2022-08-30T11:36:56.480Z,98495.38
2022-08-30T11:38:03.600Z,98500.66
2022-08-30T11:39:12.341Z,98497.90
2022-08-30T11:40:24.031Z,98500.70
2022-08-30T11:41:38.278Z,98500.01
2022-08-30T11:42:50.192Z,98502.89
2022-08-30T11:43:58.591Z,98502.14
2022-08-30T11:45:25.445Z,98505.35
2022-08-30T11:46:33.860Z,98507.50
2022-08-30T11:47:45.201Z,98509.38
2022-08-30T11:49:14.211Z,98510.83
2022-08-30T11:50:32.009Z,98511.09
2022-08-30T11:52:27.632Z,98513.16
2022-08-30T11:53:39.800Z,98514.16
2022-08-30T11:55:20.911Z,98516.14
2022-08-30T11:56:30.400Z,98514.45
2022-08-30T11:57:58.951Z,98511.86
2022-08-30T11:59:06.732Z,98512.80
2022-08-30T12:00:36.361Z,98513.85
2022-08-30T12:01:51.296Z,98513.05
2022-08-30T12:03:04.188Z,98512.66
2022-08-30T12:04:18.698Z,98514.69
2022-08-30T12:05:44.071Z,98513.84
2022-08-30T12:06:52.441Z,98518.92
2022-08-30T12:08:02.952Z,98518.05
2022-08-30T12:09:12.981Z,98516.08
2022-08-30T12:10:28.123Z,98520.44
2022-08-30T12:11:35.492Z,98519.17
2022-08-30T12:12:49.371Z,98517.16
2022-08-30T12:13:59.777Z,98519.10
2022-08-30T12:15:07.812Z,98519.13
2022-08-30T12:16:22.139Z,98523.23
2022-08-30T12:18:15.279Z,98523.89
2022-08-30T12:19:23.056Z,98524.33
2022-08-30T12:20:47.357Z,98523.23
2022-08-30T12:21:58.258Z,98523.43
2022-08-30T12:23:31.337Z,98525.77
2022-08-30T12:24:41.485Z,98523.08
2022-08-30T12:25:48.566Z,98522.58
2022-08-30T12:26:55.736Z,98522.42
2022-08-30T12:28:31.644Z,98525.23
2022-08-30T12:29:39.455Z,98523.32
2022-08-30T12:30:48.577Z,98517.98
2022-08-30T12:31:59.330Z,98520.17
2022-08-30T12:33:11.613Z,98520.94
2022-08-30T12:34:30.938Z,98521.23
2022-08-30T12:35:38.844Z,98523.16
2022-08-30T12:37:10.324Z,98524.87
2022-08-30T12:38:28.041Z,98524.09
2022-08-30T12:39:38.486Z,98523.40
2022-08-30T12:40:54.923Z,98519.30
2022-08-30T12:42:17.953Z,98521.85
2022-08-30T12:43:28.557Z,98522.47
2022-08-30T12:44:50.157Z,98526.70
2022-08-30T12:46:07.200Z,98526.30
2022-08-30T12:47:15.945Z,98525.21
2022-08-30T12:48:24.242Z,98526.97
2022-08-30T12:49:36.508Z,98527.80
2022-08-30T12:50:54.327Z,98529.13
2022-08-30T12:52:24.215Z,98526.39
2022-08-30T12:53:33.349Z,98527.55
2022-08-30T12:54:41.412Z,98528.30
2022-08-30T12:56:01.348Z,98529.34
2022-08-30T12:57:25.383Z,98532.35
2022-08-30T12:58:47.535Z,98529.88
2022-08-30T13:00:02.189Z,98534.83
2022-08-30T13:01:31.791Z,98537.73
2022-08-30T13:02:54.253Z,98537.86
2022-08-30T13:04:05.676Z,98536.86
2022-08-30T13:05:47.973Z,98535.89
2022-08-30T13:06:59.075Z,98540.77
2022-08-30T13:08:23.165Z,98540.95
2022-08-30T13:09:38.478Z,98541.77
2022-08-30T13:11:05.779Z,98541.85
2022-08-30T13:12:27.948Z,98543.83
2022-08-30T13:13:44.261Z,98543.80
2022-08-30T13:14:55.285Z,98544.71
2022-08-30T13:16:29.260Z,98543.84
2022-08-30T13:17:38.166Z,98548.45
2022-08-30T13:19:10.405Z,98550.68
2022-08-30T13:20:18.805Z,98549.98
2022-08-30T13:21:34.773Z,98550.51
2022-08-30T13:22:44.669Z,98553.69
2022-08-30T13:24:02.485Z,98552.15
2022-08-30T13:25:12.477Z,98550.95
2022-08-30T13:26:24.227Z,98548.31
2022-08-30T13:27:36.991Z,98546.52
2022-08-30T13:28:50.456Z,98546.91
2022-08-30T13:30:00.681Z,98548.41
2022-08-30T13:31:10.029Z,98549.88
2022-08-30T13:32:18.307Z,98549.33
2022-08-30T13:33:27.469Z,98549.12
2022-08-30T13:34:37.308Z,98547.91
2022-08-30T13:35:45.832Z,98548.83
2022-08-30T13:36:59.056Z,98550.16
2022-08-30T13:38:07.562Z,98550.34
2022-08-30T13:39:15.604Z,98551.42
2022-08-30T13:40:24.211Z,98553.66
2022-08-30T13:41:34.768Z,98552.84
2022-08-30T13:42:45.035Z,98550.23
2022-08-30T13:44:12.127Z,98550.98
2022-08-30T13:46:54.669Z,98549.64
2022-08-30T13:48:05.355Z,98552.27
2022-08-30T13:49:44.236Z,98552.79
2022-08-30T13:50:57.122Z,98551.58
2022-08-30T13:52:19.700Z,98545.67
2022-08-30T13:54:58.810Z,98544.59
2022-08-30T13:56:08.237Z,98544.23
2022-08-30T13:58:52.917Z,98548.69
2022-08-30T14:00:00.937Z,98549.50
2022-08-30T14:01:09.436Z,98548.10
2022-08-30T14:02:18.163Z,98546.63
2022-08-30T14:03:26.513Z,98549.55
2022-08-30T14:04:34.153Z,98555.11
2022-08-30T14:05:51.571Z,98553.71
2022-08-30T14:07:13.883Z,98550.27
2022-08-30T14:08:47.736Z,98554.73
2022-08-30T14:10:30.597Z,98552.79
2022-08-30T14:11:27.665Z,98554.60
2022-08-30T14:14:32.372Z,98555.84